createdAt,value
2017-08-30T00:01:21.516Z,100508.20
2017-08-30T00:03:49.848Z,100506.02
2017-08-30T00:06:18.145Z,100509.88
2017-08-30T00:08:46.445Z,100509.64
2017-08-30T00:11:14.780Z,100506.81
2017-08-30T00:13:43.094Z,100506.83
2017-08-30T00:16:11.405Z,100505.69
2017-08-30T00:18:39.748Z,100502.69
2017-08-30T00:21:08.045Z,100501.16
2017-08-30T00:23:36.342Z,100495.23
2017-08-30T00:26:22.317Z,100486.62
2017-08-30T00:28:50.632Z,100487.30
2017-08-30T00:31:18.943Z,100481.34
2017-08-30T00:33:47.241Z,100483.12
2017-08-30T00:36:15.554Z,100469.95
2017-08-30T00:38:43.852Z,100477.78
2017-08-30T00:41:12.165Z,100474.54
2017-08-30T00:43:40.501Z,100476.12
2017-08-30T00:46:08.803Z,100474.23
2017-08-30T00:48:37.113Z,100466.95
2017-08-30T00:51:05.425Z,100466.56
2017-08-30T00:53:33.731Z,100464.99
2017-08-30T00:56:02.040Z,100469.12
2017-08-30T00:58:30.352Z,100464.61
2017-08-30T01:00:58.663Z,100455.29
2017-08-30T01:03:26.969Z,100456.20
2017-08-30T01:05:55.294Z,100448.39
2017-08-30T01:08:23.594Z,100454.03
2017-08-30T01:10:51.905Z,100452.81
2017-08-30T01:13:20.248Z,100455.73
2017-08-30T01:15:48.565Z,100439.18
2017-08-30T01:18:16.869Z,100455.81
2017-08-30T01:20:45.209Z,100450.70
2017-08-30T01:23:13.501Z,100448.78
2017-08-30T01:25:41.810Z,100445.64
2017-08-30T01:28:10.140Z,100437.31
2017-08-30T01:30:38.487Z,100438.73
2017-08-30T01:33:06.792Z,100425.97
2017-08-30T01:35:35.109Z,100432.34
2017-08-30T01:38:03.418Z,100428.60
2017-08-30T01:40:31.720Z,100420.52
2017-08-30T01:43:00.074Z,100422.97
2017-08-30T01:45:28.373Z,100422.56
2017-08-30T01:47:56.696Z,100432.79
2017-08-30T01:50:25.106Z,100424.82
2017-08-30T01:52:53.440Z,100425.41
2017-08-30T01:55:21.758Z,100419.28
2017-08-30T01:57:50.074Z,100420.64
2017-08-30T02:00:18.381Z,100417.74
2017-08-30T02:02:46.696Z,100415.96
2017-08-30T02:05:15.009Z,100420.78
2017-08-30T02:07:43.309Z,100420.22
2017-08-30T02:10:11.620Z,100418.31
2017-08-30T02:12:39.949Z,100418.21
2017-08-30T02:15:08.252Z,100417.52
2017-08-30T02:17:36.586Z,100420.25
2017-08-30T02:20:04.912Z,100418.08
2017-08-30T02:22:33.212Z,100416.45
2017-08-30T02:25:01.524Z,100412.73
2017-08-30T02:27:29.844Z,100409.44
2017-08-30T02:29:58.166Z,100410.81
2017-08-30T02:32:26.499Z,100402.45
2017-08-30T02:34:54.835Z,100399.17
2017-08-30T02:37:23.154Z,100397.93
2017-08-30T02:39:51.461Z,100390.52
2017-08-30T02:42:19.821Z,100387.92
2017-08-30T02:44:48.137Z,100389.00
2017-08-30T02:47:16.459Z,100390.52
2017-08-30T02:49:44.793Z,100390.28
2017-08-30T02:52:13.102Z,100389.72
2017-08-30T02:54:41.409Z,100390.85
2017-08-30T02:57:09.749Z,100394.34
2017-08-30T02:59:38.070Z,100394.42
2017-08-30T03:02:06.381Z,100390.61
2017-08-30T03:04:34.713Z,100396.93
2017-08-30T03:07:03.019Z,100385.96
2017-08-30T03:09:31.347Z,100391.05
2017-08-30T03:12:00.046Z,100388.30
2017-08-30T03:14:28.361Z,100393.80
2017-08-30T03:16:56.675Z,100392.34
2017-08-30T03:19:25.023Z,100396.62
2017-08-30T03:21:53.333Z,100392.11
2017-08-30T03:24:21.649Z,100395.58
2017-08-30T03:26:50.020Z,100406.72
2017-08-30T03:29:18.330Z,100401.09
2017-08-30T03:31:46.647Z,100397.15
2017-08-30T03:34:14.990Z,100396.89
2017-08-30T03:36:44.053Z,100396.11
2017-08-30T03:39:12.358Z,100405.87
2017-08-30T03:41:40.696Z,100400.95
2017-08-30T03:44:09.009Z,100393.28
2017-08-30T03:46:37.371Z,100397.28
2017-08-30T03:49:05.715Z,100395.38
2017-08-30T03:51:34.034Z,100406.65
2017-08-30T03:54:02.350Z,100400.05
2017-08-30T03:56:30.697Z,100398.67
2017-08-30T03:58:59.028Z,100396.23
2017-08-30T04:01:27.350Z,100398.28
2017-08-30T04:03:55.689Z,100393.06
2017-08-30T04:06:23.998Z,100394.29
2017-08-30T04:08:52.382Z,100394.16
2017-08-30T04:11:20.742Z,100402.80
2017-08-30T04:13:49.058Z,100405.83
2017-08-30T04:16:17.382Z,100409.39
2017-08-30T04:18:45.722Z,100405.25
2017-08-30T04:21:14.042Z,100402.67
2017-08-30T04:23:42.350Z,100398.41
2017-08-30T04:26:10.682Z,100395.38
2017-08-30T04:28:38.994Z,100390.28
2017-08-30T04:31:07.293Z,100386.97
2017-08-30T04:33:35.621Z,100386.42
2017-08-30T04:36:03.933Z,100388.89
2017-08-30T04:38:32.237Z,100393.36
2017-08-30T04:41:00.593Z,100400.91
2017-08-30T04:43:28.910Z,100401.97
2017-08-30T04:45:57.221Z,100401.50
2017-08-30T04:48:25.566Z,100397.53
2017-08-30T04:50:53.907Z,100397.35
2017-08-30T04:53:22.233Z,100395.97
2017-08-30T04:55:50.559Z,100400.03
2017-08-30T04:58:18.874Z,100402.59
2017-08-30T05:00:47.188Z,100395.72
2017-08-30T05:03:15.543Z,100395.02
2017-08-30T05:05:43.867Z,100388.03
2017-08-30T05:08:12.188Z,100393.78
2017-08-30T05:10:40.548Z,100389.73
2017-08-30T05:13:08.861Z,100390.38
2017-08-30T05:15:37.190Z,100385.73
2017-08-30T05:18:05.555Z,100383.03
2017-08-30T05:20:33.927Z,100389.53
2017-08-30T05:23:02.234Z,100386.31
2017-08-30T05:25:30.565Z,100385.91
2017-08-30T05:27:58.883Z,100386.69
2017-08-30T05:30:27.194Z,100382.56
2017-08-30T05:32:55.562Z,100379.50
2017-08-30T05:35:23.872Z,100382.23
2017-08-30T05:37:52.263Z,100380.90
2017-08-30T05:40:20.641Z,100374.97
2017-08-30T05:42:48.966Z,100374.50
2017-08-30T05:45:17.282Z,100368.17
2017-08-30T05:47:45.610Z,100374.81
2017-08-30T05:50:13.934Z,100370.50
2017-08-30T05:52:42.281Z,100369.97
2017-08-30T05:55:10.595Z,100365.05
2017-08-30T05:57:38.911Z,100365.52
2017-08-30T06:00:07.259Z,100368.94
2017-08-30T06:02:35.565Z,100370.88
2017-08-30T06:05:03.874Z,100363.36
2017-08-30T06:07:32.219Z,100367.09
2017-08-30T06:10:00.527Z,100361.87
2017-08-30T06:12:28.851Z,100361.83
2017-08-30T06:14:57.210Z,100360.67
2017-08-30T06:17:25.530Z,100362.71
2017-08-30T06:19:53.866Z,100361.55
2017-08-30T06:22:22.182Z,100355.33
2017-08-30T06:24:50.491Z,100358.58
2017-08-30T06:27:18.846Z,100355.12
2017-08-30T06:29:47.163Z,100351.28
2017-08-30T06:32:15.491Z,100349.41
2017-08-30T06:34:43.809Z,100349.27
2017-08-30T06:37:12.131Z,100349.31
2017-08-30T06:39:40.470Z,100346.88
2017-08-30T06:42:08.794Z,100350.22
2017-08-30T06:44:37.108Z,100351.45
2017-08-30T06:47:05.421Z,100343.66
2017-08-30T06:49:33.726Z,100345.83
2017-08-30T06:52:02.079Z,100341.41
2017-08-30T06:54:30.439Z,100344.68
2017-08-30T06:56:58.754Z,100342.63
2017-08-30T06:59:27.097Z,100343.66
2017-08-30T07:01:55.403Z,100346.41
2017-08-30T07:04:23.740Z,100351.16
2017-08-30T07:06:52.046Z,100352.69
2017-08-30T07:09:20.352Z,100357.05
2017-08-30T07:11:48.682Z,100345.64
2017-08-30T07:14:16.999Z,100350.13
2017-08-30T07:16:45.342Z,100354.92
2017-08-30T07:19:13.653Z,100358.25
2017-08-30T07:21:41.956Z,100347.22
2017-08-30T07:24:10.280Z,100353.38
2017-08-30T07:26:38.589Z,100353.87
2017-08-30T07:29:06.937Z,100356.17
2017-08-30T07:31:35.252Z,100355.52
2017-08-30T07:34:03.557Z,100356.27
2017-08-30T07:36:31.875Z,100357.42
2017-08-30T07:39:00.188Z,100358.48
2017-08-30T07:41:28.542Z,100355.24
2017-08-30T07:43:56.858Z,100351.66
2017-08-30T07:46:25.174Z,100362.47
2017-08-30T07:48:53.485Z,100356.33
2017-08-30T07:51:21.819Z,100349.52
2017-08-30T07:53:50.166Z,100352.31
2017-08-30T07:56:18.481Z,100353.31
2017-08-30T07:58:46.805Z,100342.59
2017-08-30T08:01:15.125Z,100343.43
2017-08-30T08:03:43.446Z,100346.58
2017-08-30T08:06:11.802Z,100348.66
2017-08-30T08:08:40.129Z,100339.92
2017-08-30T08:11:08.446Z,100337.74
2017-08-30T08:13:36.773Z,100329.39
2017-08-30T08:16:05.078Z,100327.34
2017-08-30T08:18:33.790Z,100334.20
2017-08-30T08:21:02.114Z,100327.41
2017-08-30T08:23:30.427Z,100328.73
2017-08-30T08:25:58.747Z,100315.80
2017-08-30T08:28:27.063Z,100315.48
2017-08-30T08:30:55.401Z,100311.69
2017-08-30T08:33:23.715Z,100318.10
2017-08-30T08:35:52.029Z,100313.72
2017-08-30T08:38:20.353Z,100318.48
2017-08-30T08:40:48.677Z,100319.62
2017-08-30T08:43:16.993Z,100308.89
2017-08-30T08:45:45.299Z,100309.41
2017-08-30T08:48:13.636Z,100317.45
2017-08-30T08:50:41.942Z,100320.52
2017-08-30T08:53:10.270Z,100325.50
2017-08-30T08:55:38.586Z,100338.31
2017-08-30T08:58:06.921Z,100332.02
2017-08-30T09:00:35.230Z,100340.25
2017-08-30T09:03:03.547Z,100337.58
2017-08-30T09:05:31.875Z,100332.57
2017-08-30T09:08:00.187Z,100329.10
2017-08-30T09:10:28.506Z,100322.19
2017-08-30T09:12:56.841Z,100318.63
2017-08-30T09:15:25.158Z,100316.14
2017-08-30T09:17:53.499Z,100312.34
2017-08-30T09:20:21.818Z,100303.66
2017-08-30T09:22:50.125Z,100311.33
2017-08-30T09:25:18.460Z,100309.81
2017-08-30T09:27:46.772Z,100307.16
2017-08-30T09:30:15.190Z,100306.56
2017-08-30T09:32:43.505Z,100306.27
2017-08-30T09:35:11.801Z,100304.87
2017-08-30T09:37:40.120Z,100304.56
2017-08-30T09:40:08.430Z,100307.19
2017-08-30T09:42:36.747Z,100294.15
2017-08-30T09:45:05.062Z,100299.80
2017-08-30T09:47:33.365Z,100298.53
2017-08-30T09:50:01.667Z,100296.67
2017-08-30T09:52:30.004Z,100296.31
2017-08-30T09:54:58.294Z,100299.05
2017-08-30T09:57:26.594Z,100300.80
2017-08-30T09:59:54.909Z,100293.28
2017-08-30T10:02:23.223Z,100297.28
2017-08-30T10:04:51.546Z,100294.59
2017-08-30T10:07:19.867Z,100293.60
2017-08-30T10:09:48.180Z,100298.17
2017-08-30T10:12:16.569Z,100290.85
2017-08-30T10:14:44.886Z,100290.30
2017-08-30T10:17:13.202Z,100287.32
2017-08-30T10:19:41.554Z,100289.21
2017-08-30T10:22:09.853Z,100286.36
2017-08-30T10:24:38.163Z,100297.20
2017-08-30T10:27:06.479Z,100285.23
2017-08-30T10:29:34.781Z,100288.63
2017-08-30T10:32:03.109Z,100273.73
2017-08-30T10:34:31.431Z,100277.23
2017-08-30T10:36:59.750Z,100274.11
2017-08-30T10:39:28.068Z,100262.59
2017-08-30T10:41:56.399Z,100258.56
2017-08-30T10:44:24.726Z,100257.25
2017-08-30T10:46:53.041Z,100258.46
2017-08-30T10:49:21.345Z,100262.39
2017-08-30T10:51:49.691Z,100252.48
2017-08-30T10:54:18.823Z,100253.41
2017-08-30T10:56:47.127Z,100255.46
2017-08-30T10:59:15.454Z,100241.54
2017-08-30T11:01:43.757Z,100251.63
2017-08-30T11:04:12.077Z,100246.59
2017-08-30T11:06:40.382Z,100235.29
2017-08-30T11:09:08.700Z,100231.47
2017-08-30T11:11:37.006Z,100234.66
2017-08-30T11:14:05.318Z,100228.83
2017-08-30T11:16:33.629Z,100222.60
2017-08-30T11:19:01.963Z,100211.01
2017-08-30T11:21:30.267Z,100199.45
2017-08-30T11:23:58.614Z,100202.01
2017-08-30T11:26:27.022Z,100200.23
2017-08-30T11:28:55.326Z,100194.77
2017-08-30T11:31:23.642Z,100188.33
2017-08-30T11:33:51.953Z,100179.15
2017-08-30T11:36:20.260Z,100183.22
2017-08-30T11:38:48.618Z,100192.72
2017-08-30T11:41:16.959Z,100192.16
2017-08-30T11:43:45.274Z,100186.94
2017-08-30T11:46:13.590Z,100190.64
2017-08-30T11:48:41.901Z,100182.99
2017-08-30T11:51:10.230Z,100185.16
2017-08-30T11:53:38.534Z,100190.03
2017-08-30T11:56:06.860Z,100186.81
2017-08-30T11:58:35.171Z,100175.84
2017-08-30T12:01:03.502Z,100174.81
2017-08-30T12:03:31.830Z,100165.06
2017-08-30T12:06:00.162Z,100156.42
2017-08-30T12:08:28.468Z,100152.58
2017-08-30T12:10:56.776Z,100148.58
2017-08-30T12:13:25.108Z,100149.77
2017-08-30T12:15:53.419Z,100153.98
2017-08-30T12:18:21.745Z,100153.20
2017-08-30T12:20:50.054Z,100152.49
2017-08-30T12:23:18.391Z,100147.57
2017-08-30T12:25:46.694Z,100139.59
2017-08-30T12:28:15.032Z,100145.29
2017-08-30T12:30:43.339Z,100132.94
2017-08-30T12:33:11.654Z,100129.40
2017-08-30T12:35:39.980Z,100128.19
2017-08-30T12:38:13.864Z,100128.17
2017-08-30T12:40:42.177Z,100121.48
2017-08-30T12:43:10.488Z,100120.94
2017-08-30T12:45:38.817Z,100127.11
2017-08-30T12:48:07.118Z,100122.72
2017-08-30T12:50:35.438Z,100120.00
2017-08-30T12:53:03.751Z,100120.48
2017-08-30T12:55:32.078Z,100118.13
2017-08-30T12:58:00.386Z,100123.95
2017-08-30T13:00:28.707Z,100127.24
2017-08-30T13:02:57.008Z,100122.52
2017-08-30T13:05:25.355Z,100123.22
2017-08-30T13:07:53.669Z,100113.25
2017-08-30T13:10:22.004Z,100105.70
2017-08-30T13:12:50.319Z,100101.78
2017-08-30T13:15:18.645Z,100100.80
2017-08-30T13:17:46.961Z,100093.46
2017-08-30T13:20:15.272Z,100087.11
2017-08-30T13:22:43.595Z,100081.44
2017-08-30T13:25:11.914Z,100077.50
2017-08-30T13:27:40.230Z,100082.92
2017-08-30T13:30:08.541Z,100083.08
2017-08-30T13:32:36.881Z,100072.20
2017-08-30T13:35:05.193Z,100072.64
2017-08-30T13:37:33.530Z,100081.33
2017-08-30T13:40:01.849Z,100073.53
2017-08-30T13:42:30.153Z,100061.70
2017-08-30T13:44:58.466Z,100064.32
2017-08-30T13:47:26.779Z,100067.66
2017-08-30T13:49:55.120Z,100054.73
2017-08-30T13:52:23.434Z,100051.47
2017-08-30T13:54:51.747Z,100051.27
2017-08-30T13:57:20.082Z,100046.55
2017-08-30T13:59:48.403Z,100047.44
2017-08-30T14:02:16.753Z,100053.87
2017-08-30T14:04:45.137Z,100057.34
2017-08-30T14:07:13.445Z,100060.73
2017-08-30T14:09:41.764Z,100054.91
2017-08-30T14:12:10.066Z,100049.48
2017-08-30T14:14:38.383Z,100045.09
2017-08-30T14:17:06.694Z,100047.50
2017-08-30T14:19:35.011Z,100043.62
2017-08-30T14:22:03.369Z,100041.53
2017-08-30T14:24:31.669Z,100038.84
2017-08-30T14:26:59.981Z,100033.11
2017-08-30T14:29:28.290Z,100027.13
2017-08-30T14:31:56.633Z,100018.09
2017-08-30T14:34:30.828Z,100022.44
2017-08-30T14:36:59.157Z,100020.86
2017-08-30T14:39:27.472Z,100017.95
2017-08-30T14:41:55.793Z,100010.53
2017-08-30T14:44:24.109Z,100006.09
2017-08-30T14:46:52.476Z,100001.78
2017-08-30T14:49:20.779Z,100000.50
2017-08-30T14:51:49.086Z,99992.61
2017-08-30T14:54:17.510Z,99986.86
2017-08-30T14:56:45.827Z,99973.91
2017-08-30T14:59:14.138Z,99974.32
2017-08-30T15:01:42.450Z,99966.61
2017-08-30T15:04:10.758Z,99970.41
2017-08-30T15:06:39.070Z,99966.77
2017-08-30T15:09:07.390Z,99969.98
2017-08-30T15:11:35.686Z,99970.37
2017-08-30T15:14:04.016Z,99980.04
2017-08-30T15:16:32.322Z,99977.23
2017-08-30T15:19:00.627Z,99971.80
2017-08-30T15:21:28.951Z,99963.57
2017-08-30T15:23:57.289Z,99960.34
2017-08-30T15:26:25.610Z,99952.12
2017-08-30T15:28:53.921Z,99949.89
2017-08-30T15:31:22.242Z,99945.89
2017-08-30T15:33:50.536Z,99945.28
2017-08-30T15:36:18.848Z,99942.64
2017-08-30T15:38:47.166Z,99940.48
2017-08-30T15:41:15.499Z,99947.09
2017-08-30T15:43:43.827Z,99936.79
2017-08-30T15:46:12.128Z,99934.22
2017-08-30T15:48:40.447Z,99918.73
2017-08-30T15:51:08.754Z,99921.97
2017-08-30T15:53:37.066Z,99907.29
2017-08-30T15:56:05.374Z,99903.30
2017-08-30T15:58:33.695Z,99907.52
2017-08-30T16:01:02.052Z,99908.34
2017-08-30T16:03:30.362Z,99910.70
2017-08-30T16:05:58.666Z,99900.27
2017-08-30T16:08:27.009Z,99897.22
2017-08-30T16:10:55.326Z,99885.38
2017-08-30T16:13:23.655Z,99886.53
2017-08-30T16:15:51.976Z,99879.91
2017-08-30T16:18:20.292Z,99885.09
2017-08-30T16:20:48.613Z,99879.84
2017-08-30T16:23:16.924Z,99883.02
2017-08-30T16:25:45.239Z,99882.97
2017-08-30T16:28:13.550Z,99885.31
2017-08-30T16:30:41.866Z,99886.69
2017-08-30T16:33:10.166Z,99883.03
2017-08-30T16:35:38.491Z,99875.97
2017-08-30T16:38:06.803Z,99877.61
2017-08-30T16:40:35.117Z,99879.85
2017-08-30T16:43:03.423Z,99882.44
2017-08-30T16:45:31.766Z,99879.58
2017-08-30T16:48:00.070Z,99887.20
2017-08-30T16:50:28.381Z,99886.98
2017-08-30T16:52:56.681Z,99890.58
2017-08-30T16:55:24.982Z,99889.03
2017-08-30T16:57:53.313Z,99886.66
2017-08-30T17:00:21.609Z,99885.30
2017-08-30T17:02:49.917Z,99881.86
2017-08-30T17:05:18.225Z,99874.22
2017-08-30T17:07:46.541Z,99875.19
2017-08-30T17:10:14.848Z,99875.49
2017-08-30T17:12:43.190Z,99876.39
2017-08-30T17:15:11.498Z,99873.65
2017-08-30T17:17:39.799Z,99873.99
2017-08-30T17:20:08.114Z,99872.30
2017-08-30T17:22:36.426Z,99877.38
2017-08-30T17:25:04.763Z,99875.58
2017-08-30T17:27:33.079Z,99864.98
2017-08-30T17:30:01.437Z,99873.59
2017-08-30T17:32:29.738Z,99869.95
2017-08-30T17:34:58.069Z,99857.13
2017-08-30T17:37:26.382Z,99864.19
2017-08-30T17:39:54.710Z,99864.80
2017-08-30T17:42:23.023Z,99868.31
2017-08-30T17:44:51.358Z,99871.95
2017-08-30T17:47:19.669Z,99876.29
2017-08-30T17:49:47.983Z,99868.28
2017-08-30T17:52:16.313Z,99871.79
2017-08-30T17:54:44.616Z,99873.00
2017-08-30T17:57:12.931Z,99871.88
2017-08-30T17:59:41.262Z,99871.03
2017-08-30T18:02:09.581Z,99868.68
2017-08-30T18:04:37.892Z,99873.25
2017-08-30T18:07:06.211Z,99877.51
2017-08-30T18:09:34.525Z,99886.63
2017-08-30T18:12:02.841Z,99879.47
2017-08-30T18:14:31.167Z,99878.28
2017-08-30T18:16:59.483Z,99874.56
2017-08-30T18:19:27.787Z,99875.31
2017-08-30T18:21:56.094Z,99875.02
2017-08-30T18:24:24.422Z,99883.94
2017-08-30T18:26:52.758Z,99877.89
2017-08-30T18:29:21.063Z,99878.27
2017-08-30T18:31:49.367Z,99880.66
2017-08-30T18:34:17.691Z,99883.05
2017-08-30T18:36:46.016Z,99882.68
2017-08-30T18:39:14.335Z,99879.34
2017-08-30T18:41:42.666Z,99880.05
2017-08-30T18:44:10.977Z,99884.70
2017-08-30T18:46:39.307Z,99893.85
2017-08-30T18:49:07.646Z,99897.42
2017-08-30T18:51:35.956Z,99897.56
2017-08-30T18:54:04.274Z,99895.27
2017-08-30T18:56:32.590Z,99894.75
2017-08-30T18:59:00.909Z,99892.27
2017-08-30T19:01:29.215Z,99895.19
2017-08-30T19:03:57.531Z,99896.73
2017-08-30T19:06:25.838Z,99890.45
2017-08-30T19:08:54.162Z,99895.21
2017-08-30T19:11:22.474Z,99906.37
2017-08-30T19:13:50.765Z,99902.98
2017-08-30T19:16:19.082Z,99903.16
2017-08-30T19:18:47.370Z,99899.88
2017-08-30T19:21:15.678Z,99893.23
2017-08-30T19:23:43.991Z,99889.20
2017-08-30T19:26:12.321Z,99890.60
2017-08-30T19:28:40.617Z,99891.03
2017-08-30T19:31:08.938Z,99889.77
2017-08-30T19:33:37.249Z,99894.31
2017-08-30T19:36:05.553Z,99890.05
2017-08-30T19:38:33.849Z,99892.82
2017-08-30T19:41:02.182Z,99901.58
2017-08-30T19:43:30.494Z,99897.66
2017-08-30T19:45:58.814Z,99895.64
2017-08-30T19:48:27.124Z,99886.70
2017-08-30T19:50:55.427Z,99882.66
2017-08-30T19:53:23.743Z,99885.81
2017-08-30T19:55:52.070Z,99881.55
2017-08-30T19:58:20.383Z,99881.02
2017-08-30T20:00:48.701Z,99868.52
2017-08-30T20:03:17.010Z,99876.66
2017-08-30T20:05:45.326Z,99877.16
2017-08-30T20:08:13.636Z,99889.22
2017-08-30T20:10:41.958Z,99894.10
2017-08-30T20:13:10.263Z,99896.42
2017-08-30T20:15:38.606Z,99890.52
2017-08-30T20:18:06.918Z,99881.61
2017-08-30T20:20:35.242Z,99876.88
2017-08-30T20:23:03.580Z,99868.62
2017-08-30T20:25:31.894Z,99866.88
2017-08-30T20:28:00.210Z,99877.52
2017-08-30T20:30:28.536Z,99877.76
2017-08-30T20:32:56.853Z,99875.53
2017-08-30T20:35:25.173Z,99869.28
2017-08-30T20:37:53.469Z,99867.32
2017-08-30T20:40:21.783Z,99865.69
2017-08-30T20:42:50.111Z,99870.08
2017-08-30T20:45:18.421Z,99860.48
2017-08-30T20:47:46.743Z,99866.07
2017-08-30T20:50:15.054Z,99872.00
2017-08-30T20:52:43.377Z,99871.13
2017-08-30T20:55:11.682Z,99871.75
2017-08-30T20:57:39.998Z,99869.07
2017-08-30T21:00:08.309Z,99866.17
2017-08-30T21:02:36.640Z,99862.68
2017-08-30T21:05:04.954Z,99860.22
2017-08-30T21:07:33.278Z,99866.34
2017-08-30T21:10:01.583Z,99870.70
2017-08-30T21:12:29.903Z,99878.73
2017-08-30T21:14:58.213Z,99882.56
2017-08-30T21:17:26.538Z,99882.14
2017-08-30T21:19:54.842Z,99881.16
2017-08-30T21:22:23.158Z,99879.45
2017-08-30T21:24:51.465Z,99876.45
2017-08-30T21:27:19.804Z,99876.52
2017-08-30T21:29:48.117Z,99871.35
2017-08-30T21:32:16.438Z,99873.20
2017-08-30T21:34:44.749Z,99872.34
2017-08-30T21:37:13.050Z,99873.30
2017-08-30T21:39:41.366Z,99878.11
2017-08-30T21:42:09.667Z,99876.78
2017-08-30T21:44:37.992Z,99865.38
2017-08-30T21:47:06.291Z,99874.72
2017-08-30T21:49:34.602Z,99878.98
2017-08-30T21:52:02.918Z,99877.99
2017-08-30T21:54:31.255Z,99880.25
2017-08-30T21:56:59.574Z,99883.28
2017-08-30T21:59:27.913Z,99886.77
2017-08-30T22:01:56.225Z,99889.43
2017-08-30T22:04:24.538Z,99896.39
2017-08-30T22:06:52.836Z,99898.40
2017-08-30T22:09:21.154Z,99892.34
2017-08-30T22:11:49.461Z,99890.14
2017-08-30T22:14:17.778Z,99886.66
2017-08-30T22:16:46.078Z,99887.08
2017-08-30T22:19:14.397Z,99881.05
2017-08-30T22:21:42.703Z,99881.08
2017-08-30T22:24:11.017Z,99873.84
2017-08-30T22:26:39.317Z,99874.34
2017-08-30T22:29:07.645Z,99873.88
2017-08-30T22:31:35.954Z,99879.92
2017-08-30T22:34:04.281Z,99875.34
2017-08-30T22:36:32.593Z,99873.02
2017-08-30T22:39:00.907Z,99868.56
2017-08-30T22:41:29.211Z,99870.13
2017-08-30T22:43:57.540Z,99869.09
2017-08-30T22:46:25.860Z,99863.03
2017-08-30T22:48:54.156Z,99867.19
2017-08-30T22:51:22.488Z,99871.78
2017-08-30T22:53:50.796Z,99873.98
2017-08-30T22:56:19.113Z,99878.73
2017-08-30T22:58:47.427Z,99879.02
2017-08-30T23:01:15.747Z,99875.36
2017-08-30T23:03:44.055Z,99888.25
2017-08-30T23:06:12.365Z,99893.10
2017-08-30T23:08:40.679Z,99892.33
2017-08-30T23:11:09.003Z,99893.91
2017-08-30T23:13:37.312Z,99900.09
2017-08-30T23:16:05.635Z,99908.59
2017-08-30T23:18:33.955Z,99917.66
2017-08-30T23:21:02.291Z,99923.94
2017-08-30T23:23:30.598Z,99929.50
2017-08-30T23:25:58.906Z,99924.11
2017-08-30T23:28:27.223Z,99920.61
2017-08-30T23:30:55.547Z,99915.66
2017-08-30T23:33:23.851Z,99898.05
2017-08-30T23:35:52.170Z,99885.36
2017-08-30T23:38:20.481Z,99886.58
2017-08-30T23:40:48.826Z,99889.63
2017-08-30T23:43:17.143Z,99891.16
2017-08-30T23:45:45.450Z,99889.92
2017-08-30T23:48:13.762Z,99893.73
2017-08-30T23:50:42.073Z,99896.32
2017-08-30T23:53:10.394Z,99892.70
2017-08-30T23:55:38.701Z,99888.37
2017-08-30T23:58:07.021Z,99888.19
